Impacts TAF Board
For situational awareness. Not to be used for flight planning purposes.
IDs:

KGKY - Arlington Muni, TX, US

Issued at 0520 UTC 19 Aug 2019
Updated at 0618 UTC 19 Aug 2019
Potential Impact None Slight Moderate High
Time0553Z 19/07Z 19/08Z 19/09Z 19/10Z 19/11Z 19/12Z 19/13Z 19/14Z 19/15Z 19/16Z 19/17Z 19/18Z 19/19Z>>
Type OBS PRVL PRVL PRVL PRVL PRVL PRVL PRVL PRVL PRVL PRVL PRVL PRVL PRVL
VIS 10 >6 >6 >6 >6 >6 >6 >6 >6 >6 >6 >6 >6 >6
CIG -- -- -- -- -- -- -- -- -- -- -- -- -- --
Cover CLR FEW FEW FEW FEW FEW FEW FEW FEW FEW FEW FEW FEW FEW
FltCat VFR VFR VFR VFR VFR VFR VFR VFR VFR VFR VFR VFR VFR VFR
WX -- -- -- -- -- -- -- -- -- -- -- -- -- --
WDir 150 160 160 160 160 160 160 160 160 160 160 160 160 160
WSpd 7 11 11 11 11 11 11 11 11 11 11 11 11 11
WGst -- -- -- -- -- -- -- -- -- -- -- -- -- --
Raw TAF
KGKY 190520Z 1906/2006 16011KT P6SM FEW050 FEW250

Raw METAR
KGKY 190553Z AUTO 15007KT 10SM CLR 31/22 A2991 RMK AO2 SLP117 T03110217 10367 20300 403830267 51014
KGKY 190453Z AUTO 15008KT 10SM CLR 31/20 A2990 RMK AO2 SLP114 T03060200
KGKY 190353Z AUTO 13004KT 10SM CLR 31/21 A2989 RMK AO2 SLP110 T03060206

METAR Board
Radar Display
Forecast Discussion
For situational awareness. Not to be used for flight planning purposes.